メインページ
METAR-TAF:

METAR-TAF

空港 :

エカテリンブルク, ロシア

コルツォヴォ国際空港

緯度: 56-50N, 経度: 060-38E, 海抜: 237m

現時点の気象観測

当レポートは32分前の16:00(UTC)に作成
南/南東の風 6kt
気温 21°C
湿度 60%
気圧 1002 hPa
視程10km以上
高度5000ftの雲は散在している, 積乱雲.

METAR: USSS 221600Z 16003MPS 9999 SCT050CB 21/13 Q1002 R26R/010060 NOSIG RMK QFE731/0975

時間: 21:32 (16:32 UTC)

予報

当レポートは2時間35分前の13:57(UTC)に作成
予報は22日の 15時(UTC)から 23日の 15時(UTC)まで有効
の風 10kt
視程10km以上
高度3000ftの雲は散在している, 積乱雲.
22日の 15時(UTC)から 23日の 03時(UTC)まで一時的に
南/南西の風 25kt
高度1100ftの雲は散在している
高度2000ftの千切れ雲あり, 積乱雲.
激しい雷雨, 小雨
23日の 0300時(UTC)から
南西の風 8kt
視程: 3100m
高度1100ftの千切れ雲あり, 積乱雲.
弱いにわか雨, 靄

TAF: USSS 221357Z 2215/2315 18005MPS 9999 SCT030CB TEMPO 2215/2303 21013MPS -TSRA SCT011 BKN020CB FM230300 23004MPS 3100 -SHRA BR BKN011CB

4,000以上の空港の気象観測と天気予報(METAR報とTAF報)

利用可能な観測所は地図上に黄色い丸と赤い丸で示す。

丸の上にカーソルを重ねると観測所名を参照できる。

次にクリックすると気象観測と天気予報を参照できる。

マップの切り替え:黒色「×」印の緑ボタンをクリックして拡大、「-」印の緑ボタンをクリックして縮小、緑色の三角印をクリックして隣りの地図に切り替え


METAR-TAF: